Time;durP1;ratioP1;P1;durP2;ratioP2;P2;SDS_P1;SDS_P2;PMS_P1;PMS_P2;Temp;Humidity;BMP_temperature;BMP_pressure;BME280_temperature;BME280_humidity;BME280_pressure;Samples;Min_cycle;Max_cycle;Signal;HPM_P1;HPM_P2
2020/12/06 00:01:26;;;;;;;27.70;12.02;;;5.90;99.90;;;6.87;72.19;100031.22;5079049;28;20218;-74
2020/12/06 00:03:54;;;;;;;24.88;11.13;;;5.90;99.90;;;6.85;72.64;100021.78;5081904;28;20275;-74
2020/12/06 00:06:21;;;;;;;32.15;12.32;;;5.90;99.90;;;6.83;72.62;100011.41;5081258;28;20243;-74
2020/12/06 00:08:48;;;;;;;30.77;11.98;;;5.90;99.90;;;6.81;73.10;100008.03;5075190;28;20184;-74
2020/12/06 00:11:16;;;;;;;26.90;11.88;;;5.90;99.90;;;6.79;73.19;100006.38;5076499;28;20203;-74
2020/12/06 00:13:42;;;;;;;29.15;11.25;;;5.80;99.90;;;6.76;73.63;100003.88;5077612;28;20192;-74
2020/12/06 00:16:13;;;;;;;23.95;11.55;;;5.80;99.90;;;6.73;73.82;100001.38;5083604;28;20193;-74
2020/12/06 00:18:43;;;;;;;26.17;11.85;;;5.80;99.90;;;6.66;73.41;99998.16;5085447;28;20226;-73
2020/12/06 00:21:13;;;;;;;26.92;12.27;;;5.70;99.90;;;6.64;74.39;99994.75;5085399;28;20624;-75
2020/12/06 00:23:39;;;;;;;30.40;12.50;;;5.70;99.90;;;6.60;74.68;99998.34;5090419;28;20644;-74
2020/12/06 00:26:06;;;;;;;27.75;11.60;;;5.60;99.90;;;6.57;75.16;99989.78;5090590;28;20188;-74
2020/12/06 00:28:33;;;;;;;28.63;12.70;;;5.60;99.90;;;6.53;75.21;99978.63;5086804;28;20271;-73
2020/12/06 00:31:00;;;;;;;27.13;11.85;;;5.60;99.90;;;6.51;75.37;99987.41;5084109;28;20212;-74
2020/12/06 00:33:26;;;;;;;30.85;12.32;;;5.50;99.90;;;6.46;76.13;99982.38;5082130;28;20195;-74
2020/12/06 00:35:55;;;;;;;32.55;13.02;;;5.50;99.90;;;6.40;76.13;99972.16;5088823;28;20274;-74
2020/12/06 00:38:22;;;;;;;31.95;12.98;;;5.50;99.90;;;6.32;76.48;99961.16;5085548;28;20248;-73
2020/12/06 00:40:50;;;;;;;27.73;12.95;;;5.40;99.90;;;6.30;76.62;99960.38;5087189;28;20281;-76
2020/12/06 00:43:16;;;;;;;31.67;12.85;;;5.40;99.90;;;6.27;76.74;99942.28;5101813;28;20253;-74
2020/12/06 00:45:45;;;;;;;30.50;12.65;;;5.40;99.90;;;6.28;77.24;99949.16;5103491;28;20200;-73
2020/12/06 00:48:11;;;;;;;38.13;15.88;;;5.40;99.90;;;6.30;77.49;99947.38;5086435;28;20556;-73
2020/12/06 00:50:38;;;;;;;33.70;14.18;;;5.40;99.90;;;6.30;77.82;99948.22;5102840;28;20208;-76
2020/12/06 00:53:05;;;;;;;29.60;13.50;;;5.40;99.90;;;6.30;77.73;99945.63;5099100;28;20222;-73
2020/12/06 00:55:32;;;;;;;28.95;13.27;;;5.40;99.90;;;6.27;78.09;99932.75;5080651;28;20222;-75
2020/12/06 00:58:00;;;;;;;30.80;13.90;;;5.40;99.90;;;6.27;78.37;99931.91;5100794;28;20208;-74
2020/12/06 01:00:27;;;;;;;30.88;14.13;;;5.40;99.90;;;6.25;78.94;99936.28;5084855;28;20219;-73
2020/12/06 01:02:53;;;;;;;29.48;13.52;;;5.40;99.90;;;6.25;79.09;99938.88;5099154;28;20288;-73
2020/12/06 01:05:20;;;;;;;30.25;12.75;;;5.40;99.90;;;6.24;79.32;99943.25;5082604;28;20644;-74
2020/12/06 01:07:46;;;;;;;29.10;13.15;;;5.30;99.90;;;6.21;79.35;99937.31;5084233;28;20211;-76
2020/12/06 01:10:13;;;;;;;32.22;13.20;;;5.30;99.90;;;6.20;79.79;99939.03;5074676;28;20214;-74
2020/12/06 01:12:41;;;;;;;31.77;13.27;;;5.30;99.90;;;6.22;79.63;99949.38;5074198;28;20188;-72
2020/12/06 01:15:10;;;;;;;29.15;12.77;;;5.30;99.90;;;6.22;80.06;99950.25;5073097;28;20653;-73
2020/12/06 01:17:37;;;;;;;32.38;14.25;;;5.30;99.90;;;6.24;79.96;99942.41;5068143;28;20566;-73
2020/12/06 01:20:07;;;;;;;32.97;14.00;;;5.30;99.90;;;6.26;80.19;99940.59;5051270;28;20262;-71
2020/12/06 01:22:33;;;;;;;34.25;15.15;;;5.30;99.90;;;6.28;80.36;99928.38;5052869;28;20192;-73
2020/12/06 01:24:59;;;;;;;31.98;14.50;;;5.40;99.90;;;6.30;80.89;99927.47;5052708;28;20672;-71
2020/12/06 01:27:26;;;;;;;32.40;14.60;;;5.40;99.90;;;6.33;80.95;99921.28;5052469;28;20700;-72
2020/12/06 01:29:53;;;;;;;32.92;14.98;;;5.40;99.90;;;6.36;81.06;99923.81;5050922;28;20209;-71
2020/12/06 01:32:19;;;;;;;32.05;14.30;;;5.50;99.90;;;6.39;81.31;99923.69;5052279;28;20189;-72
2020/12/06 01:34:48;;;;;;;36.78;15.20;;;5.50;99.90;;;6.45;81.58;99917.47;5052487;28;20219;-73
2020/12/06 01:37:15;;;;;;;33.95;15.07;;;5.60;99.90;;;6.50;81.77;99907.75;5050943;28;20185;-71
2020/12/06 01:39:41;;;;;;;34.60;15.80;;;5.60;99.90;;;6.54;81.83;99893.75;5051853;28;20205;-73
2020/12/06 01:42:07;;;;;;;33.25;14.88;;;5.70;99.90;;;6.56;82.25;99873.75;5052180;28;20196;-71
2020/12/06 01:44:33;;;;;;;38.05;15.52;;;5.70;99.90;;;6.60;82.46;99872.75;5049940;28;20565;-73
2020/12/06 01:47:02;;;;;;;35.58;15.95;;;5.70;99.90;;;6.65;82.49;99878.63;5063296;28;20216;-72
2020/12/06 01:49:35;;;;;;;33.13;15.07;;;5.80;99.90;;;6.70;82.84;99887.94;5070633;28;20207;-72
2020/12/06 01:52:04;;;;;;;36.92;15.63;;;5.90;99.90;;;6.76;82.96;99890.34;5072231;28;20202;-73
2020/12/06 01:54:30;;;;;;;35.53;15.18;;;6.00;99.90;;;6.85;82.81;99881.38;5072300;28;20229;-72
2020/12/06 01:56:57;;;;;;;37.72;15.85;;;6.00;99.90;;;6.92;83.03;99869.81;5070384;28;20891;-71
2020/12/06 01:59:23;;;;;;;34.78;15.35;;;6.10;99.90;;;6.97;82.98;99863.56;5074627;28;20203;-71
2020/12/06 02:02:01;;;;;;;33.58;15.30;;;6.10;99.90;;;7.01;83.06;99854.75;5071821;28;20191;-71
2020/12/06 02:04:30;;;;;;;36.83;15.07;;;6.20;99.90;;;7.05;83.03;99858.09;5070673;28;20250;-71
2020/12/06 02:06:58;;;;;;;38.47;15.60;;;6.30;99.90;;;7.09;83.15;99857.91;5071995;28;20211;-72
2020/12/06 02:09:26;;;;;;;35.58;15.43;;;6.30;99.90;;;7.11;83.30;99850.91;5071585;28;20234;-73
2020/12/06 02:11:53;;;;;;;36.30;15.82;;;6.30;99.90;;;7.14;82.91;99849.94;5090364;28;20207;-73
2020/12/06 02:14:20;;;;;;;35.28;14.63;;;6.30;99.90;;;7.11;83.03;99837.91;5077635;28;20184;-73
2020/12/06 02:16:47;;;;;;;37.83;16.08;;;6.40;99.90;;;7.13;83.28;99836.06;5074235;28;20196;-73
2020/12/06 02:19:15;;;;;;;33.47;14.20;;;6.40;99.90;;;7.15;83.53;99833.44;5072592;28;20199;-73
2020/12/06 02:21:42;;;;;;;31.75;14.60;;;6.40;99.90;;;7.16;83.40;99828.16;5079107;28;20212;-73
2020/12/06 02:24:11;;;;;;;35.38;15.13;;;6.40;99.90;;;7.17;83.49;99835.06;5078138;28;20724;-74
2020/12/06 02:26:42;;;;;;;35.67;15.85;;;6.40;99.90;;;7.17;83.36;99837.66;5083987;28;20286;-73
2020/12/06 02:29:09;;;;;;;36.08;15.43;;;6.40;99.90;;;7.15;83.19;99836.03;5083489;28;20180;-73
2020/12/06 02:31:37;;;;;;;39.33;15.73;;;6.40;99.90;;;7.14;83.52;99829.13;5078672;28;20297;-73
2020/12/06 02:34:03;;;;;;;33.95;14.73;;;6.40;99.90;;;7.13;83.53;99837.84;5070882;28;20668;-73
2020/12/06 02:36:30;;;;;;;33.88;15.07;;;6.40;99.90;;;7.13;83.46;99838.66;5070173;28;20203;-73
2020/12/06 02:38:57;;;;;;;40.95;16.08;;;6.40;99.90;;;7.13;83.57;99841.25;5086868;28;20206;-73
2020/12/06 02:41:34;;;;;;;37.30;15.10;;;6.40;99.90;;;7.12;83.57;99841.31;5071432;28;20207;-71
2020/12/06 02:44:00;;;;;;;34.85;14.77;;;6.40;99.90;;;7.09;83.65;99839.69;5071554;28;20241;-73
2020/12/06 02:46:27;;;;;;;32.40;14.35;;;6.40;99.90;;;7.06;83.70;99836.38;5070948;28;20187;-71
2020/12/06 02:48:53;;;;;;;40.15;16.45;;;6.30;99.90;;;7.05;83.65;99834.69;5071818;28;20684;-73
2020/12/06 02:51:19;;;;;;;34.40;14.10;;;6.30;99.90;;;7.03;83.97;99828.69;5071414;28;20265;-73
2020/12/06 02:53:45;;;;;;;36.55;14.57;;;6.30;99.90;;;7.02;84.24;99817.44;5071746;28;20184;-71
2020/12/06 02:56:12;;;;;;;32.30;15.02;;;6.30;99.90;;;7.01;83.92;99822.69;5093029;28;20203;-71
2020/12/06 02:58:38;;;;;;;32.35;14.65;;;6.30;99.90;;;7.01;84.23;99813.16;5078147;28;20188;-71
2020/12/06 03:01:05;;;;;;;35.38;14.27;;;6.20;99.90;;;7.00;84.26;99806.22;5076846;28;20237;-71
2020/12/06 03:03:31;;;;;;;31.33;13.38;;;6.20;99.90;;;6.98;84.00;99800.22;5078172;28;20188;-71
2020/12/06 03:05:57;;;;;;;35.45;15.20;;;6.20;99.90;;;6.98;84.18;99808.03;5078086;28;20184;-70
2020/12/06 03:08:23;;;;;;;32.25;14.07;;;6.20;99.90;;;6.97;84.46;99801.16;5077799;28;20204;-71
2020/12/06 03:10:50;;;;;;;33.25;12.80;;;6.20;99.90;;;6.98;84.58;99796.81;5077989;28;20199;-71
2020/12/06 03:13:17;;;;;;;34.22;13.70;;;6.20;99.90;;;6.98;84.37;99804.59;5093690;28;20249;-71
2020/12/06 03:15:43;;;;;;;31.27;13.75;;;6.20;99.90;;;6.98;84.54;99804.59;5078435;28;20188;-71
2020/12/06 03:18:09;;;;;;;34.58;14.23;;;6.20;99.90;;;6.98;84.30;99818.44;5077641;28;20208;-71
2020/12/06 03:20:35;;;;;;;33.80;14.57;;;6.20;99.90;;;6.98;84.33;99807.22;5077160;28;20208;-71
2020/12/06 03:23:02;;;;;;;33.50;13.55;;;6.20;99.90;;;6.98;84.50;99800.22;5075916;28;20195;-70
2020/12/06 03:25:28;;;;;;;29.20;12.82;;;6.20;99.90;;;6.96;84.82;99804.66;5076474;28;20196;-71
2020/12/06 03:27:54;;;;;;;32.08;13.60;;;6.20;99.90;;;6.95;84.63;99792.56;5076470;28;20227;-70
2020/12/06 03:30:21;;;;;;;34.88;13.60;;;6.20;99.90;;;6.95;84.50;99791.72;5076522;28;20227;-71
2020/12/06 03:32:47;;;;;;;32.83;12.73;;;6.20;99.90;;;6.94;84.60;99792.63;5076574;28;20188;-71
2020/12/06 03:35:14;;;;;;;32.40;13.20;;;6.10;99.90;;;6.94;84.78;99793.47;5076590;28;20193;-71
2020/12/06 03:37:40;;;;;;;34.20;13.18;;;6.20;99.90;;;6.95;84.60;99792.56;5078088;28;20278;-71
2020/12/06 03:40:06;;;;;;;30.52;13.50;;;6.20;99.90;;;6.96;84.93;99794.28;5077524;28;20204;-71
2020/12/06 03:42:32;;;;;;;34.55;13.82;;;6.20;99.90;;;6.98;84.73;99792.44;5078003;28;20241;-71
2020/12/06 03:44:59;;;;;;;33.28;14.05;;;6.20;99.90;;;6.99;84.60;99799.34;5077632;28;20185;-71
2020/12/06 03:47:26;;;;;;;30.70;12.93;;;6.20;99.90;;;6.99;84.70;99804.53;5092348;28;20618;-71
2020/12/06 03:49:52;;;;;;;33.35;14.40;;;6.20;99.90;;;7.01;84.80;99802.75;5077417;28;20212;-71
2020/12/06 03:52:18;;;;;;;29.30;12.30;;;6.20;99.90;;;7.01;84.84;99797.53;5077694;28;20648;-71
2020/12/06 03:54:44;;;;;;;30.20;13.48;;;6.20;99.90;;;7.03;84.82;99813.09;5077833;28;20195;-72
2020/12/06 03:57:10;;;;;;;27.52;12.55;;;6.20;99.90;;;7.04;84.86;99818.22;5077359;28;20184;-71
2020/12/06 03:59:37;;;;;;;29.17;13.38;;;6.20;99.90;;;7.04;84.99;99807.81;5077749;28;20199;-71
2020/12/06 04:02:03;;;;;;;29.35;12.93;;;6.30;99.90;;;7.04;85.18;99810.41;5077561;28;20291;-71
2020/12/06 04:04:30;;;;;;;31.52;13.10;;;6.30;99.90;;;7.05;85.21;99813.88;5077438;28;20192;-72
2020/12/06 04:06:56;;;;;;;29.77;12.60;;;6.30;99.90;;;7.08;85.07;99811.16;5089810;28;20211;-71
2020/12/06 04:09:22;;;;;;;29.75;13.00;;;6.30;99.90;;;7.10;85.12;99806.75;5074050;28;20185;-71
2020/12/06 04:11:49;;;;;;;32.70;13.35;;;6.30;99.90;;;7.11;84.94;99806.69;5072869;28;20184;-71
2020/12/06 04:14:15;;;;;;;33.30;12.93;;;6.30;99.90;;;7.12;84.88;99805.75;5072521;28;20195;-71
2020/12/06 04:16:41;;;;;;;33.03;13.50;;;6.30;99.90;;;7.13;85.06;99817.03;5074286;28;20207;-71
2020/12/06 04:19:07;;;;;;;35.42;12.93;;;6.40;99.90;;;7.15;85.20;99810.03;5073468;28;20192;-71
2020/12/06 04:21:34;;;;;;;27.48;12.13;;;6.40;99.90;;;7.14;85.06;99811.75;5074291;28;20207;-71
2020/12/06 04:24:01;;;;;;;33.65;13.25;;;6.40;99.90;;;7.13;85.03;99812.66;5074067;28;20180;-71
2020/12/06 04:26:27;;;;;;;31.83;12.05;;;6.40;99.90;;;7.14;85.31;99814.38;5073833;28;20188;-72
2020/12/06 04:28:53;;;;;;;27.50;11.57;;;6.40;99.90;;;7.13;85.08;99817.84;5072290;28;20329;-71
2020/12/06 04:31:19;;;;;;;28.70;12.88;;;6.40;99.90;;;7.13;84.99;99807.44;5073965;28;20207;-70
2020/12/06 04:33:45;;;;;;;30.92;11.35;;;6.40;99.90;;;7.12;85.16;99800.56;5072279;28;20188;-71
2020/12/06 04:36:12;;;;;;;27.65;12.45;;;6.40;99.90;;;7.11;85.12;99801.47;5089656;28;20660;-71
2020/12/06 04:38:39;;;;;;;28.55;12.90;;;6.40;99.90;;;7.10;85.56;99802.38;5073354;28;20251;-71
2020/12/06 04:41:05;;;;;;;30.67;12.63;;;6.40;99.90;;;7.10;85.46;99793.75;5089021;28;20250;-71
2020/12/06 04:43:32;;;;;;;28.60;12.45;;;6.30;99.90;;;7.08;85.53;99796.38;5073593;28;20212;-72
2020/12/06 04:45:59;;;;;;;28.92;12.25;;;6.30;99.90;;;7.07;85.57;99788.63;5073533;28;20195;-72
2020/12/06 04:48:40;;;;;;;26.48;11.93;;;6.30;99.90;;;7.05;85.68;99782.66;5072320;28;20227;-71
2020/12/06 04:51:08;;;;;;;31.35;12.57;;;6.30;99.90;;;7.04;85.61;99786.16;5073183;28;20203;-71
2020/12/06 04:53:56;;;;;;;28.20;12.23;;;6.30;99.90;;;7.03;85.81;99779.28;5073342;28;20210;-71
2020/12/06 04:56:23;;;;;;;27.90;12.15;;;6.30;99.90;;;7.03;86.00;99784.47;5088481;28;20282;-71
2020/12/06 04:58:52;;;;;;;31.38;13.13;;;6.30;99.90;;;7.02;85.97;99786.22;5072017;28;20192;-71
2020/12/06 05:01:21;;;;;;;29.98;12.13;;;6.30;99.90;;;7.02;85.93;99778.41;5088714;28;20204;-73
2020/12/06 05:03:57;;;;;;;31.13;13.30;;;6.30;99.90;;;7.03;85.95;99782.69;5071541;28;20196;-73
2020/12/06 05:06:23;;;;;;;28.90;12.07;;;6.30;99.90;;;7.04;86.15;99781.81;5072946;28;20192;-73
2020/12/06 05:08:52;;;;;;;30.77;12.45;;;6.30;99.90;;;7.05;85.91;99788.69;5072485;28;20229;-73
2020/12/06 05:11:18;;;;;;;31.75;13.10;;;6.30;99.90;;;7.06;86.12;99785.22;5088227;28;20219;-73
2020/12/06 05:13:45;;;;;;;30.02;11.85;;;6.30;99.90;;;7.06;86.20;99782.59;5072896;28;20192;-73
2020/12/06 05:16:12;;;;;;;28.42;12.65;;;6.30;99.90;;;7.06;86.45;99772.19;5072754;28;20214;-72
2020/12/06 05:18:39;;;;;;;30.88;12.45;;;6.30;99.90;;;7.07;86.48;99784.28;5084572;28;20544;-71
2020/12/06 05:21:05;;;;;;;29.25;12.65;;;6.30;99.90;;;7.08;86.45;99777.34;5104696;28;20642;-71
2020/12/06 05:23:32;;;;;;;33.15;12.43;;;6.40;99.90;;;7.10;86.48;99786.75;5072711;28;20191;-73
2020/12/06 05:25:59;;;;;;;27.67;12.40;;;6.40;99.90;;;7.10;86.23;99778.97;5072819;28;20191;-74
2020/12/06 05:28:26;;;;;;;27.65;12.23;;;6.30;99.90;;;7.11;86.30;99783.28;5072445;28;20212;-71
2020/12/06 05:30:53;;;;;;;29.65;11.73;;;6.40;99.90;;;7.13;86.37;99781.44;5072905;28;20683;-71
2020/12/06 05:33:20;;;;;;;31.45;13.15;;;6.40;99.90;;;7.13;86.38;99780.63;5069162;28;20212;-71
2020/12/06 05:35:46;;;;;;;30.50;12.35;;;6.40;99.90;;;7.14;86.08;99777.09;5069299;28;20195;-71
2020/12/06 05:38:13;;;;;;;29.83;11.65;;;6.40;99.90;;;7.14;86.30;99777.09;5073307;28;20199;-71
2020/12/06 05:40:45;;;;;;;32.33;12.48;;;6.40;99.90;;;7.16;86.16;99777.88;5074845;28;20215;-71
2020/12/06 05:43:12;;;;;;;26.83;11.80;;;6.40;99.90;;;7.17;86.51;99770.03;5079456;28;20184;-72
2020/12/06 05:45:39;;;;;;;28.95;12.27;;;6.40;99.90;;;7.18;86.10;99769.09;5082757;28;20282;-71
2020/12/06 05:48:07;;;;;;;28.00;12.07;;;6.50;99.90;;;7.19;86.30;99770.81;5084791;28;20277;-71
2020/12/06 05:50:34;;;;;;;27.48;12.20;;;6.40;99.90;;;7.20;86.24;99774.28;5072123;28;20219;-71
2020/12/06 05:53:01;;;;;;;27.70;12.20;;;6.40;99.90;;;7.20;86.29;99782.91;5071739;28;20192;-71
2020/12/06 05:55:29;;;;;;;30.95;12.50;;;6.50;99.90;;;7.19;86.25;99791.63;5070634;28;20199;-71
2020/12/06 05:57:56;;;;;;;27.10;12.48;;;6.50;99.90;;;7.20;86.31;99790.69;5071503;28;20187;-71
2020/12/06 06:00:23;;;;;;;28.17;12.38;;;6.50;99.90;;;7.20;86.44;99792.47;5087239;28;20216;-71
2020/12/06 06:02:58;;;;;;;29.90;12.57;;;6.50;99.90;;;7.21;86.45;99799.38;5071889;28;20279;-71
2020/12/06 06:05:28;;;;;;;32.10;12.57;;;6.50;99.90;;;7.22;86.17;99791.50;5071594;28;20183;-71
2020/12/06 06:08:02;;;;;;;28.65;12.52;;;6.50;99.90;;;7.22;86.45;99783.69;5072252;28;20211;-70
2020/12/06 06:10:35;;;;;;;31.02;12.48;;;6.50;99.90;;;7.23;86.17;99793.19;5077021;28;20217;-70
2020/12/06 06:13:04;;;;;;;27.10;11.68;;;6.50;99.90;;;7.25;86.53;99793.97;5073865;28;20188;-71
2020/12/06 06:15:33;;;;;;;29.58;12.45;;;6.50;99.90;;;7.26;86.34;99795.69;5071969;28;20180;-71
2020/12/06 06:18:01;;;;;;;30.60;12.27;;;6.50;99.90;;;7.27;86.25;99789.56;5087637;28;20192;-71
2020/12/06 06:20:30;;;;;;;24.25;11.68;;;6.50;99.90;;;7.29;86.40;99800.75;5071025;28;20265;-71
2020/12/06 06:23:00;;;;;;;28.40;11.95;;;6.50;99.90;;;7.29;86.09;99799.91;5071361;28;20192;-71
2020/12/06 06:25:28;;;;;;;28.02;12.00;;;6.60;99.90;;;7.29;86.39;99805.97;5086848;28;20214;-74
2020/12/06 06:27:55;;;;;;;29.60;12.77;;;6.60;99.90;;;7.30;86.29;99804.22;5071400;28;20219;-71
2020/12/06 06:30:23;;;;;;;27.63;11.05;;;6.50;99.90;;;7.30;86.31;99799.84;5069290;28;20212;-72
2020/12/06 06:32:50;;;;;;;27.48;11.98;;;6.60;99.90;;;7.30;86.06;99793.81;5065696;28;20202;-73
2020/12/06 06:35:17;;;;;;;26.73;11.52;;;6.60;99.90;;;7.31;86.11;99796.34;5086874;28;20671;-72
2020/12/06 06:37:46;;;;;;;27.77;12.18;;;6.60;99.90;;;7.32;86.46;99807.59;5071360;28;20193;-71
2020/12/06 06:40:13;;;;;;;31.20;12.57;;;6.60;99.90;;;7.32;86.16;99805.84;5071084;28;20274;-72
2020/12/06 06:42:40;;;;;;;28.90;12.10;;;6.60;99.90;;;7.32;86.19;99803.25;5071337;28;20184;-73
2020/12/06 06:45:09;;;;;;;26.48;12.05;;;6.60;99.90;;;7.34;86.40;99796.22;5071225;28;20185;-73
2020/12/06 06:47:41;;;;;;;26.70;11.18;;;6.60;99.90;;;7.34;86.37;99793.63;5069397;28;20684;-71
2020/12/06 06:50:10;;;;;;;27.60;12.15;;;6.60;99.90;;;7.35;86.42;99804.88;5069041;28;20703;-73
2020/12/06 06:52:40;;;;;;;25.90;11.30;;;6.60;99.90;;;7.36;86.55;99794.41;5071136;28;20206;-73
2020/12/06 06:55:08;;;;;;;28.25;12.32;;;6.60;99.90;;;7.37;86.39;99779.63;5071074;28;20192;-73
2020/12/06 06:57:35;;;;;;;28.13;11.88;;;6.70;99.90;;;7.36;86.38;99773.59;5069711;28;20192;-70
2020/12/06 07:00:03;;;;;;;30.55;10.82;;;6.70;99.90;;;7.37;86.39;99770.06;5070976;28;20216;-71
2020/12/06 07:02:35;;;;;;;27.98;11.73;;;6.70;99.90;;;7.38;86.65;99763.13;5070867;28;20192;-72
2020/12/06 07:05:04;;;;;;;28.17;11.32;;;6.70;99.90;;;7.40;86.46;99761.31;5070939;28;20207;-71
2020/12/06 07:07:42;;;;;;;27.92;11.93;;;6.70;99.90;;;7.42;86.53;99762.06;5069711;28;20231;-71
2020/12/06 07:10:11;;;;;;;28.35;11.35;;;6.70;99.90;;;7.44;86.61;99768.94;5086198;28;20302;-73
2020/12/06 07:12:40;;;;;;;26.75;11.55;;;6.80;99.90;;;7.47;86.79;99773.16;5070954;28;20180;-71
2020/12/06 07:15:09;;;;;;;27.73;12.13;;;6.80;99.90;;;7.49;86.76;99768.72;5070790;28;20679;-71
2020/12/06 07:17:35;;;;;;;25.20;11.43;;;6.80;99.90;;;7.52;86.70;99771.19;5086644;28;20188;-71
2020/12/06 07:20:04;;;;;;;26.67;11.05;;;6.90;99.90;;;7.56;86.47;99770.19;5070178;28;20219;-72
2020/12/06 07:22:31;;;;;;;26.02;10.60;;;6.90;99.90;;;7.59;86.41;99770.06;5070907;28;20203;-73
2020/12/06 07:24:58;;;;;;;23.88;10.90;;;6.90;99.90;;;7.61;86.21;99771.69;5086687;28;20291;-71
2020/12/06 07:27:25;;;;;;;27.50;10.48;;;6.90;99.90;;;7.65;86.45;99764.63;5070725;28;20177;-71
2020/12/06 07:29:51;;;;;;;25.50;11.63;;;6.90;99.90;;;7.68;86.41;99768.81;5069203;28;20212;-73
2020/12/06 07:32:20;;;;;;;24.27;10.65;;;7.00;99.90;;;7.71;86.49;99769.56;5086477;28;20188;-73
2020/12/06 07:34:46;;;;;;;24.63;10.82;;;7.00;99.90;;;7.74;86.22;99763.38;5069487;28;20254;-72
2020/12/06 07:37:14;;;;;;;25.10;10.93;;;7.10;99.90;;;7.78;86.28;99771.00;5070742;28;20196;-71
2020/12/06 07:39:45;;;;;;;30.00;10.90;;;7.10;99.90;;;7.82;86.31;99769.13;5086326;28;20727;-71
2020/12/06 07:42:18;;;;;;;23.08;10.25;;;7.10;99.90;;;7.85;85.94;99768.97;5074163;28;20187;-71
2020/12/06 07:44:49;;;;;;;24.08;9.82;;;7.20;99.90;;;7.87;86.12;99770.59;5074559;28;20188;-73
2020/12/06 07:47:17;;;;;;;27.50;10.73;;;7.20;99.90;;;7.89;85.98;99774.00;5074236;28;20199;-71
2020/12/06 07:49:46;;;;;;;22.48;9.70;;;7.20;99.90;;;7.94;85.77;99776.41;5074500;28;20220;-72
2020/12/06 07:52:15;;;;;;;22.08;9.55;;;7.20;99.90;;;7.96;85.63;99782.38;5067170;28;20187;-71
2020/12/06 07:54:51;;;;;;;26.27;10.65;;;7.30;99.90;;;7.98;85.28;99773.63;5074903;28;20903;-71
2020/12/06 07:57:24;;;;;;;24.33;10.32;;;7.30;99.90;;;8.00;85.76;99769.19;5074724;28;20289;-72
2020/12/06 07:59:52;;;;;;;25.77;9.95;;;7.40;99.90;;;8.05;85.54;99784.63;5075093;28;20204;-71
2020/12/06 08:02:22;;;;;;;22.25;9.95;;;7.40;99.90;;;8.07;85.45;99794.03;5074251;28;20195;-71
2020/12/06 08:04:51;;;;;;;26.20;11.30;;;7.40;99.90;;;8.09;85.26;99780.97;5074166;28;20188;-71
2020/12/06 08:07:24;;;;;;;25.30;10.70;;;7.50;99.90;;;8.12;85.33;99775.63;5073971;28;20195;-70
2020/12/06 08:09:55;;;;;;;22.77;10.20;;;7.50;99.90;;;8.15;85.44;99778.09;5073503;28;20215;-71
2020/12/06 08:12:24;;;;;;;25.00;10.95;;;7.60;99.90;;;8.18;85.19;99775.34;5089605;28;20203;-71
2020/12/06 08:15:00;;;;;;;23.95;10.07;;;7.50;99.90;;;8.22;85.40;99771.72;5074047;28;20187;-71
2020/12/06 08:17:40;;;;;;;23.23;9.73;;;7.60;99.90;;;8.25;84.80;99763.78;5074531;28;20188;-71
2020/12/06 08:20:09;;;;;;;20.85;9.55;;;7.60;99.90;;;8.30;84.95;99769.66;5078639;28;20224;-72
2020/12/06 08:22:53;;;;;;;25.65;9.77;;;7.70;99.90;;;8.34;84.86;99774.66;5076574;28;20197;-70
2020/12/06 08:25:22;;;;;;;23.35;9.55;;;7.70;99.90;;;8.37;84.57;99771.91;5086861;28;20196;-72
2020/12/06 08:27:51;;;;;;;21.92;10.00;;;7.80;99.90;;;8.42;84.71;99774.34;5052466;28;20208;-72
2020/12/06 08:30:19;;;;;;;22.70;10.25;;;7.80;99.90;;;8.44;84.24;99773.34;5051897;28;20212;-73
2020/12/06 08:32:53;;;;;;;21.67;9.45;;;7.80;99.90;;;8.46;84.43;99773.25;5053467;28;20184;-72
2020/12/06 08:35:20;;;;;;;25.92;9.88;;;7.90;99.90;;;8.48;84.21;99774.91;5066788;28;20203;-73
2020/12/06 08:37:46;;;;;;;22.60;9.13;;;7.90;99.90;;;8.49;84.28;99768.75;5088734;28;20204;-73
2020/12/06 08:40:13;;;;;;;24.67;9.95;;;7.90;99.90;;;8.53;84.38;99778.16;5073162;28;20208;-73
2020/12/06 08:42:39;;;;;;;44.53;19.92;;;7.90;99.90;;;8.54;83.93;99760.75;5072309;28;20189;-73
2020/12/06 08:45:06;;;;;;;29.92;13.90;;;7.90;99.90;;;8.57;83.92;99765.84;5072092;28;20192;-73
2020/12/06 08:47:42;;;;;;;30.83;13.27;;;7.90;99.90;;;8.57;83.99;99758.00;5074810;28;20188;-73
2020/12/06 08:50:12;;;;;;;30.17;14.07;;;7.90;99.90;;;8.58;83.87;99760.53;5065582;28;20207;-73
2020/12/06 08:52:39;;;;;;;26.35;13.23;;;7.90;99.90;;;8.59;83.90;99753.56;5084122;28;20192;-71
2020/12/06 08:55:26;;;;;;;27.55;10.85;;;8.00;99.90;;;8.62;83.97;99756.03;5089346;28;20188;-72
2020/12/06 08:57:54;;;;;;;21.25;9.30;;;8.00;99.90;;;8.61;83.58;99755.19;5086288;28;20195;-73
2020/12/06 09:00:21;;;;;;;23.15;10.10;;;8.00;99.90;;;8.62;83.94;99756.03;5071863;28;20672;-73
2020/12/06 09:02:47;;;;;;;22.75;10.30;;;8.00;99.90;;;8.65;83.84;99758.50;5071513;28;20287;-73
2020/12/06 09:05:14;;;;;;;22.70;9.63;;;8.00;99.90;;;8.65;83.76;99755.91;5072770;28;20293;-72
2020/12/06 09:07:40;;;;;;;24.27;10.00;;;8.00;99.90;;;8.65;83.65;99746.31;5072827;28;20678;-73
2020/12/06 09:10:08;;;;;;;22.50;9.15;;;8.00;99.90;;;8.67;83.75;99746.25;5071435;28;20315;-73
2020/12/06 09:12:36;;;;;;;23.23;9.65;;;8.00;99.90;;;8.67;83.73;99736.63;5071708;28;20656;-73
2020/12/06 09:15:04;;;;;;;25.17;9.85;;;8.10;99.90;;;8.70;83.85;99736.53;5088429;28;20188;-73
2020/12/06 09:17:32;;;;;;;19.65;9.43;;;8.10;99.90;;;8.72;83.56;99731.22;5071691;28;20188;-73
2020/12/06 09:20:01;;;;;;;21.45;9.18;;;8.10;99.90;;;8.74;83.57;99739.84;5072359;28;20208;-73
2020/12/06 09:22:27;;;;;;;26.27;10.65;;;8.10;99.90;;;8.78;83.56;99736.16;5088493;28;20188;-73
2020/12/06 09:24:54;;;;;;;22.65;9.00;;;8.20;99.90;;;8.82;83.26;99729.91;5073233;28;20189;-74
2020/12/06 09:27:20;;;;;;;25.38;9.23;;;8.20;99.90;;;8.85;83.47;99722.78;5072627;28;20199;-72
2020/12/06 09:29:46;;;;;;;23.90;9.60;;;8.20;99.90;;;8.89;83.03;99723.47;5073190;28;20216;-73
2020/12/06 09:32:13;;;;;;;23.38;9.68;;;8.30;99.90;;;8.92;83.10;99723.31;5072456;28;20188;-71
2020/12/06 09:34:40;;;;;;;25.30;9.75;;;8.30;99.90;;;8.96;82.82;99716.22;5072424;28;20193;-71
2020/12/06 09:37:06;;;;;;;28.85;9.68;;;8.40;99.90;;;8.99;83.01;99703.88;5071609;28;20257;-72
2020/12/06 09:39:33;;;;;;;23.60;9.25;;;8.40;99.90;;;9.02;82.80;99700.25;5072144;28;20188;-72
2020/12/06 09:41:59;;;;;;;23.98;9.40;;;8.40;99.90;;;9.06;82.56;99709.63;5072625;28;20211;-71
2020/12/06 09:44:25;;;;;;;22.25;9.38;;;8.50;99.90;;;9.08;82.71;99697.34;5071985;28;20191;-71
2020/12/06 09:46:51;;;;;;;19.58;9.23;;;8.50;99.90;;;9.11;82.64;99703.25;5082535;28;20180;-70
2020/12/06 09:49:18;;;;;;;23.75;9.52;;;8.50;99.90;;;9.15;82.58;99704.81;5089309;28;20216;-71
2020/12/06 09:51:45;;;;;;;21.60;9.20;;;8.50;99.90;;;9.18;82.45;99699.44;5075470;28;20196;-72
2020/12/06 09:54:11;;;;;;;21.75;9.10;;;8.60;99.90;;;9.23;82.41;99691.38;5075261;28;20188;-71
2020/12/06 09:56:40;;;;;;;20.30;8.98;;;8.60;99.90;;;9.26;82.48;99692.06;5075834;28;20213;-70
2020/12/06 09:59:07;;;;;;;22.60;9.27;;;8.70;99.90;;;9.29;82.05;99694.56;5074039;28;20187;-73
2020/12/06 10:01:33;;;;;;;22.75;9.10;;;8.70;99.90;;;9.30;82.01;99698.84;5073564;28;20227;-72
2020/12/06 10:03:59;;;;;;;20.05;9.02;;;8.70;99.90;;;9.34;82.16;99705.63;5075084;28;20188;-71
2020/12/06 10:06:27;;;;;;;22.63;9.10;;;8.80;99.90;;;9.35;81.89;99709.91;5102118;28;20188;-70
2020/12/06 10:08:55;;;;;;;20.52;9.68;;;8.80;99.90;;;9.38;81.77;99701.06;5103213;28;20250;-72
2020/12/06 10:11:23;;;;;;;20.88;8.57;;;8.80;99.90;;;9.39;81.88;99698.41;5085968;28;20211;-73
2020/12/06 10:13:49;;;;;;;18.77;7.80;;;8.90;99.90;;;9.45;81.76;99703.31;5084998;28;20211;-71
2020/12/06 10:16:16;;;;;;;23.42;8.80;;;8.90;99.90;;;9.49;81.75;99704.84;5082001;28;20227;-72
2020/12/06 10:18:43;;;;;;;22.08;8.75;;;8.90;99.90;;;9.54;81.78;99700.25;5094049;28;20196;-72
2020/12/06 10:21:11;;;;;;;26.52;11.02;;;9.00;99.90;;;9.60;81.39;99699.94;5097446;28;20234;-71
2020/12/06 10:23:38;;;;;;;20.00;9.00;;;9.00;99.90;;;9.66;81.17;99706.63;5089595;28;20257;-73